CEB992 RPMR-RPLL
Flight info
| Callsign | CEB992 |
|---|---|
| Flight time | 1h 36m |
| Altitude | 38000 |
| Route | LATIA4P LATIA W6 LUMVI B473 LAIYA LAIYA7R |
| Aircraft | A320/M-SDE3FGHIRWY/LB1 |
Departure
| Time | 2026-05-07 15:40 |
|---|---|
| Airport | General Santos International Airport (RPMR) |
Arrival
| Time | 2026-05-07 17:16 |
|---|---|
| Airport | Ninoy Aquino International Airport (RPLL) |
| Time | Latitude | Longitude | Altitude | Speed | Heading |
|---|---|---|---|---|---|
| 2026-05-07 15:34 | 6.05641 | 125.09889 | 514 ft | 11 kts | 173° |
| 2026-05-07 15:34 | 6.05564 | 125.09899 | 514 ft | 13 kts | 173° |
| 2026-05-07 15:35 | 6.05474 | 125.09910 | 513 ft | 12 kts | 173° |
| 2026-05-07 15:35 | 6.05415 | 125.09868 | 514 ft | 14 kts | 261° |
| 2026-05-07 15:35 | 6.05404 | 125.09781 | 515 ft | 12 kts | 263° |
| 2026-05-07 15:35 | 6.05394 | 125.09699 | 514 ft | 12 kts | 263° |
| 2026-05-07 15:36 | 6.05334 | 125.09679 | 514 ft | 13 kts | 176° |
| 2026-05-07 15:36 | 6.05227 | 125.09690 | 513 ft | 16 kts | 173° |
| 2026-05-07 15:36 | 6.05116 | 125.09704 | 514 ft | 17 kts | 173° |
| 2026-05-07 15:36 | 6.04996 | 125.09718 | 515 ft | 17 kts | 173° |
| 2026-05-07 15:37 | 6.04881 | 125.09732 | 516 ft | 17 kts | 173° |
| 2026-05-07 15:37 | 6.04759 | 125.09747 | 514 ft | 19 kts | 173° |
| 2026-05-07 15:37 | 6.04626 | 125.09764 | 514 ft | 21 kts | 173° |
| 2026-05-07 15:37 | 6.04493 | 125.09780 | 515 ft | 18 kts | 176° |
| 2026-05-07 15:38 | 6.04400 | 125.09776 | 515 ft | 10 kts | 180° |
| 2026-05-07 15:38 | 6.04396 | 125.09793 | 515 ft | 2 kts | 359° |
| 2026-05-07 15:38 | 6.04408 | 125.09790 | 515 ft | 2 kts | 349° |
| 2026-05-07 15:38 | 6.04417 | 125.09789 | 518 ft | 0 kts | 354° |
| 2026-05-07 15:39 | 6.04440 | 125.09786 | 515 ft | 17 kts | 354° |
| 2026-05-07 15:39 | 6.04841 | 125.09737 | 515 ft | 94 kts | 353° |
| 2026-05-07 15:39 | 6.05694 | 125.09631 | 514 ft | 150 kts | 353° |
| 2026-05-07 15:40 | 6.06811 | 125.09464 | 924 ft | 166 kts | 354° |
| 2026-05-07 15:40 | 6.07962 | 125.09356 | 1643 ft | 166 kts | 355° |
| 2026-05-07 15:40 | 6.09108 | 125.09231 | 2362 ft | 166 kts | 354° |
| 2026-05-07 15:40 | 6.10320 | 125.09095 | 2729 ft | 186 kts | 354° |
| 2026-05-07 15:41 | 6.11689 | 125.08960 | 3030 ft | 209 kts | 1° |
| 2026-05-07 15:41 | 6.13132 | 125.09376 | 3319 ft | 230 kts | 36° |
| 2026-05-07 15:41 | 6.14236 | 125.10635 | 3684 ft | 253 kts | 55° |
| 2026-05-07 15:41 | 6.15257 | 125.12141 | 4338 ft | 266 kts | 56° |
| 2026-05-07 15:42 | 6.16295 | 125.13702 | 5191 ft | 270 kts | 57° |
| 2026-05-07 15:42 | 6.17336 | 125.15268 | 6054 ft | 274 kts | 57° |
| 2026-05-07 15:42 | 6.18405 | 125.16870 | 6874 ft | 278 kts | 57° |
| 2026-05-07 15:42 | 6.19489 | 125.18486 | 7694 ft | 281 kts | 57° |
| 2026-05-07 15:43 | 6.20591 | 125.20122 | 8500 ft | 284 kts | 57° |
| 2026-05-07 15:43 | 6.21712 | 125.21774 | 9318 ft | 288 kts | 54° |
| 2026-05-07 15:43 | 6.23105 | 125.23234 | 10093 ft | 293 kts | 39° |
| 2026-05-07 15:43 | 6.24897 | 125.24295 | 10546 ft | 311 kts | 23° |
| 2026-05-07 15:44 | 6.27066 | 125.24888 | 10771 ft | 334 kts | 14° |
| 2026-05-07 15:44 | 6.29370 | 125.25397 | 11307 ft | 343 kts | 14° |
| 2026-05-07 15:44 | 6.31710 | 125.25919 | 11960 ft | 347 kts | 14° |
| 2026-05-07 15:44 | 6.34087 | 125.26456 | 12631 ft | 351 kts | 14° |
| 2026-05-07 15:45 | 6.36480 | 125.27004 | 13285 ft | 355 kts | 15° |
| 2026-05-07 15:45 | 6.38897 | 125.27557 | 13916 ft | 358 kts | 15° |
| 2026-05-07 15:45 | 6.41367 | 125.27950 | 14467 ft | 364 kts | 4° |
| 2026-05-07 15:45 | 6.43919 | 125.27778 | 15021 ft | 370 kts | 351° |
| 2026-05-07 15:46 | 6.48632 | 125.25615 | 16150 ft | 381 kts | 323° |
| 2026-05-07 15:46 | 6.50684 | 125.23960 | 16715 ft | 384 kts | 322° |
| 2026-05-07 15:46 | 6.52802 | 125.22254 | 17274 ft | 387 kts | 322° |
| 2026-05-07 15:47 | 6.54892 | 125.20582 | 17829 ft | 390 kts | 323° |
| 2026-05-07 15:47 | 6.57034 | 125.18876 | 18336 ft | 394 kts | 323° |
| 2026-05-07 15:47 | 6.59188 | 125.17163 | 18805 ft | 396 kts | 323° |
| 2026-05-07 15:47 | 6.61357 | 125.15438 | 19274 ft | 399 kts | 323° |
| 2026-05-07 15:48 | 6.63538 | 125.13696 | 19747 ft | 402 kts | 322° |
| 2026-05-07 15:48 | 6.65732 | 125.11943 | 20200 ft | 404 kts | 322° |
| 2026-05-07 15:48 | 6.67943 | 125.10177 | 20669 ft | 407 kts | 322° |
| 2026-05-07 15:48 | 6.70167 | 125.08400 | 21126 ft | 409 kts | 322° |
| 2026-05-07 15:49 | 6.72402 | 125.06609 | 21571 ft | 412 kts | 322° |
| 2026-05-07 15:49 | 6.74650 | 125.04806 | 22004 ft | 415 kts | 322° |
| 2026-05-07 15:49 | 6.76915 | 125.02990 | 22436 ft | 417 kts | 322° |
| 2026-05-07 15:49 | 6.79193 | 125.01165 | 22855 ft | 420 kts | 322° |
| 2026-05-07 15:50 | 6.81485 | 124.99330 | 23268 ft | 422 kts | 322° |
| 2026-05-07 15:51 | 6.90293 | 124.92760 | 24554 ft | 429 kts | 335° |
| 2026-05-07 15:52 | 7.06094 | 124.88904 | 26343 ft | 438 kts | 349° |
| 2026-05-07 15:52 | 7.09097 | 124.88290 | 26674 ft | 440 kts | 349° |
| 2026-05-07 15:52 | 7.12102 | 124.87672 | 26984 ft | 442 kts | 349° |
| 2026-05-07 15:53 | 7.15126 | 124.87046 | 27291 ft | 444 kts | 349° |
| 2026-05-07 15:53 | 7.18158 | 124.86418 | 27587 ft | 446 kts | 349° |
| 2026-05-07 15:53 | 7.21209 | 124.85786 | 27877 ft | 448 kts | 349° |
| 2026-05-07 15:53 | 7.24278 | 124.85151 | 28180 ft | 451 kts | 349° |
| 2026-05-07 15:54 | 7.27355 | 124.84517 | 28478 ft | 453 kts | 349° |
| 2026-05-07 15:54 | 7.30438 | 124.83883 | 28773 ft | 455 kts | 349° |
| 2026-05-07 15:54 | 7.32505 | 124.83456 | 28973 ft | 456 kts | 348° |
| 2026-05-07 15:54 | 7.35614 | 124.82812 | 29255 ft | 458 kts | 349° |
| 2026-05-07 15:55 | 7.38746 | 124.82164 | 29539 ft | 460 kts | 348° |
| 2026-05-07 15:55 | 7.41894 | 124.81511 | 29810 ft | 462 kts | 348° |
| 2026-05-07 15:55 | 7.45053 | 124.80855 | 30062 ft | 464 kts | 348° |
| 2026-05-07 15:55 | 7.48226 | 124.80200 | 30283 ft | 466 kts | 348° |
| 2026-05-07 15:56 | 7.51406 | 124.79545 | 30516 ft | 467 kts | 349° |
| 2026-05-07 15:56 | 7.54595 | 124.78889 | 30752 ft | 469 kts | 349° |
| 2026-05-07 15:56 | 7.57803 | 124.78235 | 30983 ft | 470 kts | 349° |
| 2026-05-07 15:56 | 7.60970 | 124.77589 | 31204 ft | 471 kts | 349° |
| 2026-05-07 15:57 | 7.64227 | 124.76919 | 31471 ft | 472 kts | 348° |
| 2026-05-07 15:57 | 7.67441 | 124.76255 | 31803 ft | 470 kts | 348° |
| 2026-05-07 15:57 | 7.70603 | 124.75599 | 32131 ft | 469 kts | 348° |
| 2026-05-07 15:57 | 7.73796 | 124.74937 | 32474 ft | 468 kts | 348° |
| 2026-05-07 15:58 | 7.76987 | 124.74276 | 32805 ft | 467 kts | 348° |
| 2026-05-07 15:58 | 7.80163 | 124.73618 | 33132 ft | 466 kts | 348° |
| 2026-05-07 15:58 | 7.83342 | 124.72956 | 33485 ft | 465 kts | 348° |
| 2026-05-07 15:58 | 7.86510 | 124.72296 | 33830 ft | 464 kts | 348° |
| 2026-05-07 15:59 | 7.89664 | 124.71644 | 34148 ft | 463 kts | 348° |
| 2026-05-07 15:59 | 7.92818 | 124.70995 | 34431 ft | 462 kts | 348° |
| 2026-05-07 15:59 | 7.95969 | 124.70345 | 34694 ft | 462 kts | 348° |
| 2026-05-07 15:59 | 7.99116 | 124.69695 | 34939 ft | 461 kts | 348° |
| 2026-05-07 16:00 | 8.02260 | 124.69045 | 35191 ft | 461 kts | 348° |
| 2026-05-07 16:00 | 8.05401 | 124.68396 | 35432 ft | 461 kts | 348° |
| 2026-05-07 16:00 | 8.08547 | 124.67746 | 35680 ft | 461 kts | 348° |
| 2026-05-07 16:00 | 8.11685 | 124.67099 | 35911 ft | 460 kts | 348° |
| 2026-05-07 16:01 | 8.14820 | 124.66452 | 36173 ft | 459 kts | 348° |
| 2026-05-07 16:01 | 8.17943 | 124.65808 | 36433 ft | 459 kts | 348° |
| 2026-05-07 16:01 | 8.21032 | 124.65172 | 36655 ft | 458 kts | 348° |
| 2026-05-07 16:01 | 8.24148 | 124.64529 | 36868 ft | 458 kts | 348° |
| 2026-05-07 16:02 | 8.27269 | 124.63889 | 37088 ft | 457 kts | 348° |
| 2026-05-07 16:02 | 8.30386 | 124.63250 | 37318 ft | 457 kts | 348° |
| 2026-05-07 16:02 | 8.33495 | 124.62605 | 37531 ft | 456 kts | 347° |
| 2026-05-07 16:02 | 8.36615 | 124.61953 | 37735 ft | 456 kts | 347° |
| 2026-05-07 16:03 | 8.39717 | 124.61264 | 37859 ft | 456 kts | 343° |
| 2026-05-07 16:03 | 8.45467 | 124.58670 | 37881 ft | 452 kts | 328° |
| 2026-05-07 16:04 | 8.50918 | 124.55491 | 37868 ft | 452 kts | 329° |
| 2026-05-07 16:04 | 8.56357 | 124.52366 | 37863 ft | 453 kts | 329° |
| 2026-05-07 16:05 | 8.61833 | 124.49230 | 37863 ft | 453 kts | 329° |
| 2026-05-07 16:05 | 8.67249 | 124.46105 | 37865 ft | 453 kts | 329° |
| 2026-05-07 16:06 | 8.72713 | 124.42944 | 37875 ft | 452 kts | 329° |
| 2026-05-07 16:06 | 8.78180 | 124.39785 | 37870 ft | 453 kts | 329° |
| 2026-05-07 16:07 | 8.83669 | 124.36617 | 37860 ft | 454 kts | 329° |
| 2026-05-07 16:07 | 8.89157 | 124.33446 | 37858 ft | 455 kts | 329° |
| 2026-05-07 16:08 | 8.94662 | 124.30266 | 37860 ft | 456 kts | 329° |
| 2026-05-07 16:08 | 9.00134 | 124.27097 | 37864 ft | 456 kts | 329° |
| 2026-05-07 16:09 | 9.05645 | 124.23906 | 37869 ft | 457 kts | 329° |
| 2026-05-07 16:09 | 9.11158 | 124.20704 | 37864 ft | 457 kts | 329° |
| 2026-05-07 16:10 | 9.16680 | 124.17497 | 37860 ft | 458 kts | 329° |
| 2026-05-07 16:10 | 9.22217 | 124.14282 | 37856 ft | 459 kts | 329° |
| 2026-05-07 16:11 | 9.27772 | 124.11061 | 37864 ft | 460 kts | 329° |
| 2026-05-07 16:11 | 9.33332 | 124.07835 | 37872 ft | 460 kts | 329° |
| 2026-05-07 16:12 | 9.38891 | 124.04608 | 37879 ft | 460 kts | 329° |
| 2026-05-07 16:12 | 9.44419 | 124.01412 | 37894 ft | 460 kts | 329° |
| 2026-05-07 16:13 | 9.49971 | 123.98214 | 37892 ft | 458 kts | 329° |
| 2026-05-07 16:13 | 9.55496 | 123.95013 | 37888 ft | 457 kts | 329° |
| 2026-05-07 16:14 | 9.61014 | 123.91794 | 37873 ft | 458 kts | 329° |
| 2026-05-07 16:14 | 9.66543 | 123.88574 | 37872 ft | 459 kts | 329° |
| 2026-05-07 16:15 | 9.72086 | 123.85359 | 37872 ft | 459 kts | 329° |
| 2026-05-07 16:15 | 9.77639 | 123.82139 | 37873 ft | 460 kts | 329° |
| 2026-05-07 16:16 | 9.83172 | 123.78916 | 37893 ft | 460 kts | 329° |
| 2026-05-07 16:16 | 9.88730 | 123.75678 | 37896 ft | 460 kts | 329° |
| 2026-05-07 16:17 | 9.94288 | 123.72443 | 37902 ft | 460 kts | 329° |
| 2026-05-07 16:17 | 9.99835 | 123.69204 | 37901 ft | 460 kts | 329° |
| 2026-05-07 16:18 | 10.05390 | 123.65956 | 37888 ft | 461 kts | 329° |
| 2026-05-07 16:18 | 10.10915 | 123.62733 | 37910 ft | 460 kts | 328° |
| 2026-05-07 16:19 | 10.16464 | 123.59486 | 37911 ft | 459 kts | 328° |
| 2026-05-07 16:19 | 10.21990 | 123.56260 | 37910 ft | 458 kts | 328° |
| 2026-05-07 16:20 | 10.27513 | 123.53034 | 37911 ft | 457 kts | 328° |
| 2026-05-07 16:20 | 10.32868 | 123.49907 | 37911 ft | 457 kts | 328° |
| 2026-05-07 16:21 | 10.38407 | 123.46679 | 37911 ft | 457 kts | 328° |
| 2026-05-07 16:21 | 10.43924 | 123.43462 | 37915 ft | 456 kts | 328° |
| 2026-05-07 16:22 | 10.49426 | 123.40252 | 37919 ft | 456 kts | 328° |
| 2026-05-07 16:22 | 10.54922 | 123.37042 | 37916 ft | 455 kts | 328° |
| 2026-05-07 16:23 | 10.60411 | 123.33831 | 37915 ft | 455 kts | 328° |
| 2026-05-07 16:23 | 10.65861 | 123.30645 | 37912 ft | 455 kts | 328° |
| 2026-05-07 16:24 | 10.71348 | 123.27444 | 37911 ft | 454 kts | 328° |
| 2026-05-07 16:24 | 10.76827 | 123.24242 | 37908 ft | 454 kts | 328° |
| 2026-05-07 16:25 | 10.82294 | 123.21034 | 37909 ft | 453 kts | 328° |
| 2026-05-07 16:25 | 10.87754 | 123.17825 | 37904 ft | 453 kts | 328° |
| 2026-05-07 16:26 | 10.93207 | 123.14619 | 37898 ft | 452 kts | 328° |
| 2026-05-07 16:26 | 10.98658 | 123.11420 | 37898 ft | 452 kts | 328° |
| 2026-05-07 16:27 | 11.04104 | 123.08233 | 37897 ft | 452 kts | 328° |
| 2026-05-07 16:27 | 11.09565 | 123.05030 | 37900 ft | 452 kts | 328° |
| 2026-05-07 16:28 | 11.14975 | 123.01852 | 37898 ft | 451 kts | 328° |
| 2026-05-07 16:28 | 11.20417 | 122.98656 | 37897 ft | 451 kts | 328° |
| 2026-05-07 16:29 | 11.25847 | 122.95457 | 37898 ft | 451 kts | 328° |
| 2026-05-07 16:29 | 11.31282 | 122.92257 | 37898 ft | 451 kts | 328° |
| 2026-05-07 16:30 | 11.36709 | 122.89058 | 37898 ft | 451 kts | 328° |
| 2026-05-07 16:30 | 11.42138 | 122.85857 | 37890 ft | 451 kts | 328° |
| 2026-05-07 16:31 | 11.47594 | 122.82645 | 37880 ft | 453 kts | 328° |
| 2026-05-07 16:31 | 11.53017 | 122.79456 | 37875 ft | 454 kts | 328° |
| 2026-05-07 16:32 | 11.58486 | 122.76227 | 37879 ft | 454 kts | 328° |
| 2026-05-07 16:32 | 11.63881 | 122.72864 | 37884 ft | 454 kts | 325° |
| 2026-05-07 16:33 | 11.69120 | 122.69271 | 37888 ft | 454 kts | 323° |
| 2026-05-07 16:33 | 11.74352 | 122.65645 | 37894 ft | 454 kts | 324° |
| 2026-05-07 16:34 | 11.79622 | 122.62070 | 37893 ft | 455 kts | 325° |
| 2026-05-07 16:34 | 11.84897 | 122.58534 | 37898 ft | 454 kts | 325° |
| 2026-05-07 16:35 | 11.90161 | 122.54996 | 37901 ft | 452 kts | 324° |
| 2026-05-07 16:35 | 11.95410 | 122.51456 | 37898 ft | 452 kts | 324° |
| 2026-05-07 16:36 | 12.00618 | 122.47938 | 37897 ft | 451 kts | 324° |
| 2026-05-07 16:36 | 12.05856 | 122.44405 | 37896 ft | 451 kts | 324° |
| 2026-05-07 16:37 | 12.11096 | 122.40871 | 37889 ft | 451 kts | 324° |
| 2026-05-07 16:37 | 12.16341 | 122.37326 | 37885 ft | 452 kts | 324° |
| 2026-05-07 16:38 | 12.21538 | 122.33800 | 37887 ft | 452 kts | 324° |
| 2026-05-07 16:38 | 12.24755 | 122.31625 | 37893 ft | 452 kts | 324° |
| 2026-05-07 16:39 | 12.29998 | 122.28085 | 37895 ft | 451 kts | 324° |
| 2026-05-07 16:39 | 12.35027 | 122.24672 | 37895 ft | 451 kts | 324° |
| 2026-05-07 16:40 | 12.40199 | 122.21147 | 37894 ft | 450 kts | 324° |
| 2026-05-07 16:40 | 12.45382 | 122.17547 | 37895 ft | 450 kts | 323° |
| 2026-05-07 16:41 | 12.49763 | 122.14483 | 37899 ft | 449 kts | 323° |
| 2026-05-07 16:41 | 12.53962 | 122.11554 | 37897 ft | 449 kts | 323° |
| 2026-05-07 16:42 | 12.58986 | 122.08067 | 37905 ft | 449 kts | 323° |
| 2026-05-07 16:42 | 12.64147 | 122.04485 | 37906 ft | 449 kts | 323° |
| 2026-05-07 16:43 | 12.69279 | 122.00922 | 37904 ft | 448 kts | 323° |
| 2026-05-07 16:43 | 12.74432 | 121.97336 | 37903 ft | 447 kts | 323° |
| 2026-05-07 16:44 | 12.78741 | 121.94329 | 37906 ft | 447 kts | 323° |
| 2026-05-07 16:44 | 12.83027 | 121.91334 | 37901 ft | 447 kts | 323° |
| 2026-05-07 16:45 | 12.87952 | 121.87892 | 37904 ft | 447 kts | 323° |
| 2026-05-07 16:45 | 12.93101 | 121.84306 | 37901 ft | 447 kts | 323° |
| 2026-05-07 16:46 | 12.97710 | 121.81096 | 37899 ft | 447 kts | 323° |
| 2026-05-07 16:46 | 13.02839 | 121.77523 | 37897 ft | 447 kts | 323° |
| 2026-05-07 16:47 | 13.07996 | 121.73918 | 37901 ft | 447 kts | 323° |
| 2026-05-07 16:47 | 13.13130 | 121.70324 | 37900 ft | 447 kts | 323° |
| 2026-05-07 16:48 | 13.18241 | 121.66749 | 37899 ft | 447 kts | 323° |
| 2026-05-07 16:48 | 13.23392 | 121.63146 | 37905 ft | 447 kts | 323° |
| 2026-05-07 16:49 | 13.28535 | 121.59546 | 37906 ft | 447 kts | 323° |
| 2026-05-07 16:49 | 13.33682 | 121.55945 | 37903 ft | 447 kts | 323° |
| 2026-05-07 16:50 | 13.38822 | 121.52347 | 37406 ft | 446 kts | 323° |
| 2026-05-07 16:50 | 13.41381 | 121.50552 | 36699 ft | 447 kts | 323° |
| 2026-05-07 16:50 | 13.43935 | 121.48761 | 35938 ft | 450 kts | 323° |
| 2026-05-07 16:50 | 13.46553 | 121.46926 | 35414 ft | 447 kts | 323° |
| 2026-05-07 16:51 | 13.49106 | 121.45136 | 35020 ft | 441 kts | 323° |
| 2026-05-07 16:51 | 13.51631 | 121.43364 | 34562 ft | 438 kts | 323° |
| 2026-05-07 16:51 | 13.54105 | 121.41626 | 34104 ft | 435 kts | 323° |
| 2026-05-07 16:51 | 13.56603 | 121.39869 | 33595 ft | 433 kts | 323° |
| 2026-05-07 16:52 | 13.59069 | 121.38116 | 33103 ft | 429 kts | 323° |
| 2026-05-07 16:52 | 13.61485 | 121.36341 | 32629 ft | 426 kts | 322° |
| 2026-05-07 16:52 | 13.63869 | 121.34553 | 32170 ft | 422 kts | 322° |
| 2026-05-07 16:52 | 13.66228 | 121.32769 | 31718 ft | 418 kts | 322° |
| 2026-05-07 16:53 | 13.68564 | 121.31004 | 31278 ft | 415 kts | 322° |
| 2026-05-07 16:53 | 13.70874 | 121.29265 | 30844 ft | 411 kts | 322° |
| 2026-05-07 16:53 | 13.73176 | 121.27541 | 30419 ft | 407 kts | 323° |
| 2026-05-07 16:53 | 13.75462 | 121.25835 | 29997 ft | 404 kts | 323° |
| 2026-05-07 16:54 | 13.77732 | 121.24145 | 29518 ft | 400 kts | 323° |
| 2026-05-07 16:54 | 13.79975 | 121.22478 | 29077 ft | 395 kts | 324° |
| 2026-05-07 16:54 | 13.82195 | 121.20831 | 28606 ft | 392 kts | 324° |
| 2026-05-07 16:54 | 13.84390 | 121.19199 | 28107 ft | 389 kts | 324° |
| 2026-05-07 16:55 | 13.86481 | 121.17638 | 27638 ft | 387 kts | 324° |
| 2026-05-07 16:55 | 13.88663 | 121.16004 | 27149 ft | 385 kts | 324° |
| 2026-05-07 16:55 | 13.90821 | 121.14387 | 26663 ft | 383 kts | 324° |
| 2026-05-07 16:55 | 13.92975 | 121.12776 | 26197 ft | 381 kts | 324° |
| 2026-05-07 16:56 | 13.95115 | 121.11177 | 25735 ft | 379 kts | 324° |
| 2026-05-07 16:56 | 13.97248 | 121.09582 | 25297 ft | 377 kts | 324° |
| 2026-05-07 16:56 | 14.01479 | 121.06419 | 24401 ft | 374 kts | 325° |
| 2026-05-07 16:57 | 14.03578 | 121.04847 | 23971 ft | 373 kts | 324° |
| 2026-05-07 16:57 | 14.05670 | 121.03281 | 23554 ft | 371 kts | 325° |
| 2026-05-07 16:57 | 14.07759 | 121.01720 | 23094 ft | 369 kts | 324° |
| 2026-05-07 16:57 | 14.09829 | 121.00176 | 22666 ft | 366 kts | 324° |
| 2026-05-07 16:58 | 14.11877 | 120.98645 | 22369 ft | 358 kts | 324° |
| 2026-05-07 16:58 | 14.13823 | 120.97186 | 21992 ft | 346 kts | 324° |
| 2026-05-07 16:58 | 14.15775 | 120.95722 | 21503 ft | 348 kts | 324° |
| 2026-05-07 16:58 | 14.17767 | 120.94305 | 21014 ft | 348 kts | 330° |
| 2026-05-07 16:59 | 14.19869 | 120.93065 | 20539 ft | 349 kts | 331° |
| 2026-05-07 16:59 | 14.21985 | 120.91816 | 20054 ft | 350 kts | 332° |
| 2026-05-07 16:59 | 14.24081 | 120.90519 | 19619 ft | 351 kts | 324° |
| 2026-05-07 16:59 | 14.25667 | 120.88631 | 19239 ft | 352 kts | 296° |
| 2026-05-07 17:00 | 14.26253 | 120.86210 | 18857 ft | 350 kts | 269° |
| 2026-05-07 17:00 | 14.25765 | 120.83773 | 18467 ft | 348 kts | 247° |
| 2026-05-07 17:00 | 14.24649 | 120.81575 | 18088 ft | 346 kts | 236° |
| 2026-05-07 17:00 | 14.23274 | 120.79534 | 17662 ft | 345 kts | 232° |
| 2026-05-07 17:01 | 14.21850 | 120.77545 | 17231 ft | 345 kts | 233° |
| 2026-05-07 17:01 | 14.20469 | 120.75525 | 16811 ft | 344 kts | 235° |
| 2026-05-07 17:01 | 14.19158 | 120.73464 | 16395 ft | 344 kts | 237° |
| 2026-05-07 17:01 | 14.17908 | 120.71371 | 16025 ft | 343 kts | 238° |
| 2026-05-07 17:02 | 14.16699 | 120.69257 | 15685 ft | 340 kts | 239° |
| 2026-05-07 17:02 | 14.15524 | 120.67155 | 15362 ft | 338 kts | 239° |
| 2026-05-07 17:02 | 14.14329 | 120.65075 | 15029 ft | 335 kts | 233° |
| 2026-05-07 17:02 | 14.12698 | 120.63476 | 14850 ft | 324 kts | 208° |
| 2026-05-07 17:03 | 14.10611 | 120.62697 | 14734 ft | 311 kts | 185° |
| 2026-05-07 17:03 | 14.08530 | 120.62855 | 14516 ft | 303 kts | 161° |
| 2026-05-07 17:03 | 14.06721 | 120.63887 | 14234 ft | 297 kts | 136° |
| 2026-05-07 17:03 | 14.05546 | 120.65595 | 13965 ft | 293 kts | 110° |
| 2026-05-07 17:04 | 14.05220 | 120.67646 | 13671 ft | 291 kts | 85° |
| 2026-05-07 17:04 | 14.05806 | 120.69626 | 13336 ft | 292 kts | 59° |
| 2026-05-07 17:04 | 14.07187 | 120.71144 | 13012 ft | 294 kts | 34° |
| 2026-05-07 17:04 | 14.09088 | 120.71888 | 12678 ft | 296 kts | 8° |
| 2026-05-07 17:05 | 14.11136 | 120.71705 | 12356 ft | 299 kts | 342° |
| 2026-05-07 17:05 | 14.12982 | 120.70716 | 12027 ft | 301 kts | 328° |
| 2026-05-07 17:05 | 14.14733 | 120.69518 | 11641 ft | 303 kts | 327° |
| 2026-05-07 17:05 | 14.16477 | 120.68290 | 11266 ft | 304 kts | 327° |
| 2026-05-07 17:06 | 14.18218 | 120.67052 | 10895 ft | 305 kts | 327° |
| 2026-05-07 17:06 | 14.19960 | 120.65804 | 10515 ft | 305 kts | 327° |
| 2026-05-07 17:06 | 14.21781 | 120.64686 | 10055 ft | 305 kts | 342° |
| 2026-05-07 17:06 | 14.23835 | 120.64332 | 9581 ft | 297 kts | 8° |
| 2026-05-07 17:07 | 14.25811 | 120.64861 | 9076 ft | 294 kts | 25° |
| 2026-05-07 17:07 | 14.27670 | 120.65679 | 8580 ft | 285 kts | 27° |
| 2026-05-07 17:07 | 14.29448 | 120.66494 | 8094 ft | 275 kts | 27° |
| 2026-05-07 17:07 | 14.31142 | 120.67339 | 7616 ft | 265 kts | 35° |
| 2026-05-07 17:08 | 14.32405 | 120.68629 | 7149 ft | 253 kts | 57° |
| 2026-05-07 17:08 | 14.33353 | 120.70142 | 6683 ft | 249 kts | 59° |
| 2026-05-07 17:08 | 14.34245 | 120.71661 | 6210 ft | 246 kts | 60° |
| 2026-05-07 17:08 | 14.35123 | 120.73170 | 5721 ft | 245 kts | 60° |
| 2026-05-07 17:09 | 14.35987 | 120.74645 | 5410 ft | 242 kts | 60° |
| 2026-05-07 17:09 | 14.36689 | 120.76028 | 5057 ft | 241 kts | 69° |
| 2026-05-07 17:09 | 14.37356 | 120.77602 | 4721 ft | 239 kts | 65° |
| 2026-05-07 17:09 | 14.38073 | 120.78976 | 4434 ft | 226 kts | 62° |
| 2026-05-07 17:10 | 14.38726 | 120.80146 | 4181 ft | 214 kts | 62° |
| 2026-05-07 17:10 | 14.39096 | 120.80806 | 4053 ft | 207 kts | 62° |
| 2026-05-07 17:10 | 14.39647 | 120.81792 | 3840 ft | 197 kts | 62° |
| 2026-05-07 17:11 | 14.40310 | 120.82982 | 3608 ft | 187 kts | 62° |
| 2026-05-07 17:11 | 14.40935 | 120.84102 | 3396 ft | 173 kts | 62° |
| 2026-05-07 17:11 | 14.41509 | 120.85132 | 3184 ft | 158 kts | 63° |
| 2026-05-07 17:11 | 14.42018 | 120.86046 | 2991 ft | 142 kts | 63° |
| 2026-05-07 17:12 | 14.42500 | 120.86913 | 2804 ft | 138 kts | 63° |
| 2026-05-07 17:12 | 14.42973 | 120.87765 | 2633 ft | 135 kts | 63° |
| 2026-05-07 17:12 | 14.43441 | 120.88605 | 2454 ft | 135 kts | 63° |
| 2026-05-07 17:12 | 14.43912 | 120.89451 | 2266 ft | 142 kts | 60° |
| 2026-05-07 17:13 | 14.44396 | 120.90322 | 2087 ft | 138 kts | 60° |
| 2026-05-07 17:13 | 14.44872 | 120.91178 | 1920 ft | 137 kts | 61° |
| 2026-05-07 17:13 | 14.45347 | 120.92030 | 1743 ft | 138 kts | 62° |
| 2026-05-07 17:13 | 14.45825 | 120.92873 | 1567 ft | 138 kts | 59° |
| 2026-05-07 17:14 | 14.46332 | 120.93706 | 1392 ft | 136 kts | 60° |
| 2026-05-07 17:14 | 14.46814 | 120.94552 | 1258 ft | 137 kts | 62° |
| 2026-05-07 17:14 | 14.47259 | 120.95420 | 1111 ft | 137 kts | 65° |
| 2026-05-07 17:14 | 14.47716 | 120.96285 | 909 ft | 137 kts | 60° |
| 2026-05-07 17:15 | 14.48204 | 120.97135 | 756 ft | 137 kts | 61° |
| 2026-05-07 17:15 | 14.48680 | 120.97988 | 596 ft | 137 kts | 62° |
| 2026-05-07 17:15 | 14.49101 | 120.98746 | 408 ft | 137 kts | 62° |
| 2026-05-07 17:15 | 14.49542 | 120.99540 | 241 ft | 136 kts | 63° |
| 2026-05-07 17:16 | 14.49998 | 121.00380 | 97 ft | 135 kts | 63° |
| 2026-05-07 17:16 | 14.50414 | 121.01147 | 65 ft | 102 kts | 60° |
| 2026-05-07 17:16 | 14.50670 | 121.01599 | 64 ft | 40 kts | 60° |
| 2026-05-07 17:16 | 14.50794 | 121.01737 | 66 ft | 18 kts | 38° |
| 2026-05-07 17:17 | 14.50844 | 121.01778 | 65 ft | 6 kts | 34° |
| 2026-05-07 17:17 | 14.50885 | 121.01784 | 59 ft | 6 kts | 341° |
| 2026-05-07 17:17 | 14.50920 | 121.01755 | 63 ft | 7 kts | 316° |
| 2026-05-07 17:17 | 14.50951 | 121.01723 | 60 ft | 6 kts | 316° |
| 2026-05-07 17:18 | 14.50979 | 121.01695 | 61 ft | 5 kts | 315° |
| 2026-05-07 17:18 | 14.51021 | 121.01651 | 61 ft | 12 kts | 315° |
| 2026-05-07 17:18 | 14.51078 | 121.01592 | 68 ft | 11 kts | 315° |
| 2026-05-07 17:18 | 14.51127 | 121.01542 | 68 ft | 8 kts | 315° |
| 2026-05-07 17:19 | 14.51168 | 121.01499 | 62 ft | 11 kts | 315° |
| 2026-05-07 17:19 | 14.51234 | 121.01431 | 66 ft | 14 kts | 315° |
| 2026-05-07 17:19 | 14.51301 | 121.01448 | 64 ft | 9 kts | 47° |
| 2026-05-07 17:19 | 14.51336 | 121.01490 | 67 ft | 7 kts | 50° |
| 2026-05-07 17:20 | 14.51362 | 121.01523 | 66 ft | 5 kts | 50° |
| 2026-05-07 17:20 | 14.51383 | 121.01546 | 64 ft | 4 kts | 46° |
| 2026-05-07 17:20 | 14.51425 | 121.01589 | 64 ft | 12 kts | 39° |
| 2026-05-07 17:20 | 14.51479 | 121.01627 | 64 ft | 8 kts | 34° |
| 2026-05-07 17:21 | 14.51518 | 121.01667 | 64 ft | 7 kts | 45° |
| 2026-05-07 17:21 | 14.51550 | 121.01701 | 63 ft | 6 kts | 45° |
| 2026-05-07 17:21 | 14.51555 | 121.01705 | 64 ft | 6 kts | 44° |